Aeroporto :
LOGIN :

Iscrizione | Disclaimer

   EN    FR    IT 

 










Sommario :    VFR   VFR Marginale   IFR   IFR Intensivo   IFR Molto Intensivo
Visibilità : 
Base nubi : 
>= 8 km
>= 3000ft
5 / 8 km
1000 / 3000 ft
1500m / 5 km
500 / 1000 ft
800 / 1500m
200 / 500 ft
< 800m
< 200 ft
Simboli :   Temporali  Nebbia  Neve Forte  Precipitazioni Forti  Vento > 20 kt
SIGMETs :   Varie  Temporali  Ghiacco  Turbolenza  Onda orograficha  Ceneri Vulcaniche







- Altitudine del aeroporto : 290 ft
- Codice IATA : LAI
- Carte del aeroporto


LFRO - Lannion

ULTIMO METAR :
  • 210530Z AUTO 11004KT 9999 OVC003/// ///TCU 15/15 Q1013 TEMPO 4000 SHRA BKN012TCU

METARs OBSOLETI :
  • 210500Z AUTO 13006KT 6000 OVC002/// ///TCU 16/15 Q1013
  • 210430Z AUTO 16005KT 6000 -RA BKN002/// OVC009/// ///TCU 16/15 Q1013
  • 210400Z AUTO 15004KT 4200 RA BR BKN003/// BKN010/// BKN047/// ///TCU 16/15 Q1013
  • 210330Z AUTO 19004KT 4300 RA BR FEW007/// BKN044/// OVC060/// ///TCU 16/15 Q1014
  • 210300Z AUTO 16003KT 7000 -RA FEW004/// OVC054/// ///TCU 16/15 Q1014

TAF TAF LFRO
Valido dal 21 a 06 ore il 22 a 06 ore UTC


210500Z 2106/2206 VRB03KT 9999 BKN010
BECMG 2109/2112 BKN022
BECMG 2112/2115 03010KT
BECMG 2120/2122 VRB02KT
PROB40
TEMPO 2106/2115 4000 SHRA BKN012TCU
BECMG 2122/2124 3000 BR OVC003
TEMPO 2200/2206 0150 FG VV///
Nessun NOTAM noto per questo aeroporto.



MetMap, La meteo Aeronautica in un colpo d'occhio ! - Copyright ORBIFLY Dicembre 2007 - Disclaimer

ORBIFLY MET'MAP TEAM :

Programmazione e sviluppo : Alexandra Zaïnal
Concezione e sviluppo : Baudouin d'Aumeries
Co-Programmazione e sviluppo : Marc-Olivier Méhu
Supporto tecnico e logistico : Manuel Goepfert
Aiuto per la traduzione : Arnaldo La Scala

Contatto : metmap@orbifly.com




FONTI E CREDITI :

   NOAA